Current Weather

Najaf

Najaf, Iraq (ORNI)

Report from: Tuesday, August 16, 2022 6:00 AM UTC
Current time: Tuesday, August 16, 2022 8:13 AM UTC

Nearby weather
Weather history
Weather forecast

Temperature36.0°C (96.8°F)
Heat index33.8°C (92.8°F)
Dew point7.0°C (44.6°F)
Winds 14 kts (7.2 m/s, 16.1 mph) North-Northwest (330°)
Visibility3.7 mi. (6 km)
Clouds Few clouds 7,000 ft. (2,134 m)
Altimeter29.62 in.Hg (1003 mB)
Relative humidity17 %
Density altitude2,868 ft. (874 m)
Remarks No significant changes expected in the next two hours
Flight conditions Marginal Visual Meteorological Conditions
Raw dataORNI 160600Z 33014KT 6000 FEW070 36/07 Q1003 NOSIG
An error has occurred. This application may no longer respond until reloaded. Reload 🗙